Flight Track Log - Related Links

Times and Time Zones

All times are in EST time to prevent confusion due to time zone crossing. See the UAL1033 flight status page for this flight to view local times or setup timezone preferences in your user account.

Time Position Orientation Groundspeed Altitude Reporting Facility
EST Latitude Longitude Course Direction KTS MPH feet Rate Location/Type
Fri 03:15:00 PM 9.2844 -79.8417 295° West  Level FlightAware Approximate
Fri 03:16:00 PM 9.3375 -79.9564 295° West  Level FlightAware Approximate
Fri 03:17:00 PM 9.3906 -80.0711 295° West  Level FlightAware Approximate
Fri 03:18:00 PM 9.4437 -80.1858 295° West  Level FlightAware Approximate
Fri 03:19:00 PM 9.4968 -80.3006 295° West  Level FlightAware Approximate
Fri 03:20:00 PM 9.5498 -80.4154 295° West  Level FlightAware Approximate
Fri 03:21:00 PM 9.6028 -80.5302 295° West  Level FlightAware Approximate
Fri 03:22:00 PM 9.7087 -80.5976 296° West  Level Estimated
Fri 03:23:00 PM 9.7589 -80.7138 294° West  Level FlightAware Approximate
Fri 03:24:00 PM 9.8091 -80.8299 294° West  Level FlightAware Approximate
Fri 03:25:00 PM 9.8592 -80.9462 294° West  Level FlightAware Approximate
Fri 03:26:00 PM 9.9093 -81.0624 294° West  Level FlightAware Approximate
Fri 03:27:00 PM 9.9594 -81.1787 294° West  Level FlightAware Approximate
Fri 03:28:00 PM 10.0094 -81.2950 294° West  Level FlightAware Approximate
Fri 03:29:00 PM 10.0594 -81.4114 294° West  Level FlightAware Approximate
Fri 03:30:00 PM 10.1093 -81.5278 294° West  Level FlightAware Approximate
Fri 03:31:00 PM 10.1592 -81.6442 294° West  Level FlightAware Approximate
Fri 03:32:00 PM 10.2091 -81.7607 294° West  Level FlightAware Approximate
Fri 03:33:00 PM 10.2589 -81.8772 293° West  Level FlightAware Approximate
Fri 03:34:00 PM 10.3087 -81.9938 293° West  Level FlightAware Approximate
Fri 03:35:00 PM 10.3584 -82.1104 293° West  Level FlightAware Approximate
Fri 03:36:00 PM 10.4081 -82.2270 293° West  Level FlightAware Approximate
Fri 03:37:00 PM 10.4578 -82.3436 293° West  Level FlightAware Approximate
Fri 03:38:00 PM 10.5661 -82.4071 295° West  Level Estimated
Fri 03:39:00 PM 10.6169 -82.5233 294° West  Level FlightAware Approximate
Fri 03:40:00 PM 10.6676 -82.6396 294° West  Level FlightAware Approximate
Fri 03:41:00 PM 10.7183 -82.7559 294° West  Level FlightAware Approximate
Fri 03:42:00 PM 10.7690 -82.8722 294° West  Level FlightAware Approximate
Fri 03:43:00 PM 10.8196 -82.9885 294° West  Level FlightAware Approximate
Fri 03:44:00 PM 10.8692 -83.1027 294° West  Level FlightAware Approximate
Fri 03:45:00 PM 10.9188 -83.2169 294° West  Level FlightAware Approximate
Fri 03:46:00 PM 10.9683 -83.3311 294° West  Level FlightAware Approximate
Fri 03:47:00 PM 11.0177 -83.4453 294° West  Level FlightAware Approximate
Fri 03:48:00 PM 11.0672 -83.5596 294° West  Level FlightAware Approximate
Fri 03:49:00 PM 11.1166 -83.6739 294° West  Level FlightAware Approximate
Fri 03:50:00 PM 11.1659 -83.7883 294° West  Level FlightAware Approximate
Fri 03:51:00 PM 11.2152 -83.9027 294° West  Level FlightAware Approximate
Fri 03:52:00 PM 11.2645 -84.0172 294° West  Level FlightAware Approximate
Fri 03:53:00 PM 11.3137 -84.1317 294° West  Level FlightAware Approximate
Fri 03:54:00 PM 11.3628 -84.2462 294° West  Level FlightAware Approximate
Fri 03:55:00 PM 11.4119 -84.3607 294° West  Level FlightAware Approximate
Fri 03:56:00 PM 11.4610 -84.4753 294° West  Level FlightAware Approximate
Fri 03:57:00 PM 11.5100 -84.5900 294° West  Level FlightAware Approximate
Fri 03:58:00 PM 11.5590 -84.7047 294° West  Level FlightAware Approximate
Fri 03:59:00 PM 11.6080 -84.8194 294° West  Level FlightAware Approximate
Fri 04:00:00 PM 11.6569 -84.9341 294° West  Level FlightAware Approximate
Fri 04:01:00 PM 11.7057 -85.0489 293° West  Level FlightAware Approximate
Fri 04:02:00 PM 11.7545 -85.1638 293° West  Level FlightAware Approximate
Fri 04:03:00 PM 11.8033 -85.2787 293° West  Level FlightAware Approximate
Fri 04:04:00 PM 11.8520 -85.3936 293° West  Level FlightAware Approximate
Fri 04:05:00 PM 11.9007 -85.5086 293° West  Level FlightAware Approximate
Fri 04:06:00 PM 11.9493 -85.6236 293° West  Level FlightAware Approximate
Fri 04:07:00 PM 11.9979 -85.7386 293° West  Level FlightAware Approximate
Fri 04:08:00 PM 12.1090 -85.7914 295° West  Level Estimated
Fri 04:09:00 PM 12.1571 -85.9068 293° West  Level FlightAware Approximate
Fri 04:10:00 PM 12.2050 -86.0222 293° West  Level FlightAware Approximate
Fri 04:11:00 PM 12.2530 -86.1376 293° West  Level FlightAware Approximate
Fri 04:12:00 PM 12.3009 -86.2531 293° West  Level FlightAware Approximate
Fri 04:13:00 PM 12.3487 -86.3686 293° West  Level FlightAware Approximate
Fri 04:14:00 PM 12.3965 -86.4842 293° West  Level FlightAware Approximate
Fri 04:15:00 PM 12.4442 -86.5998 293° West  Level FlightAware Approximate
Fri 04:16:00 PM 12.4919 -86.7154 293° West  Level FlightAware Approximate
Fri 04:17:00 PM 12.5396 -86.8311 293° West  Level FlightAware Approximate
Fri 04:18:00 PM 12.5871 -86.9469 293° West  Level FlightAware Approximate
Fri 04:19:00 PM 12.6347 -87.0627 293° West  Level FlightAware Approximate
Fri 04:20:00 PM 12.6822 -87.1785 293° West  Level FlightAware Approximate
Fri 04:21:00 PM 12.7296 -87.2943 293° West  Level FlightAware Approximate
Fri 04:22:00 PM 12.7770 -87.4102 293° West  Level FlightAware Approximate
Fri 04:23:00 PM 12.8244 -87.5262 293° West  Level FlightAware Approximate
Fri 04:24:00 PM 12.8716 -87.6422 293° West  Level FlightAware Approximate
Fri 04:25:00 PM 12.9189 -87.7582 293° West  Level FlightAware Approximate
Fri 04:26:00 PM 12.9661 -87.8743 293° West  Level FlightAware Approximate
Fri 04:27:00 PM 13.0132 -87.9904 293° West  Level FlightAware Approximate
Fri 04:28:00 PM 13.0603 -88.1066 293° West  Level FlightAware Approximate
Fri 04:29:00 PM 13.1073 -88.2228 293° West  Level FlightAware Approximate
Fri 04:30:00 PM 13.1543 -88.3391 293° West  Level FlightAware Approximate
Fri 04:31:00 PM 13.2012 -88.4554 293° West  Level FlightAware Approximate
Fri 04:32:00 PM 13.2481 -88.5718 292° West  Level FlightAware Approximate
Fri 04:33:00 PM 13.3637 -88.6137 292° West  Level Estimated
Fri 04:34:00 PM 13.4793 -88.6556 309° West  Level Estimated
Fri 04:35:00 PM 13.5436 -88.7629 302° West  Level FlightAware Approximate
Fri 04:36:00 PM 13.6079 -88.8703 302° West  Level FlightAware Approximate
Fri 04:37:00 PM 13.6721 -88.9778 302° West  Level FlightAware Approximate
Fri 04:38:00 PM 13.7363 -89.0852 302° West  Level FlightAware Approximate
Fri 04:39:00 PM 13.8005 -89.1928 302° West  Level FlightAware Approximate
Fri 04:40:00 PM 13.8646 -89.3004 302° West  Level FlightAware Approximate
Fri 04:41:00 PM 13.9286 -89.4081 302° West  Level FlightAware Approximate
Fri 04:42:00 PM 13.9926 -89.5158 301° West  Level FlightAware Approximate
Fri 04:43:00 PM 14.0566 -89.6236 301° West  Level FlightAware Approximate
Fri 04:44:00 PM 14.1205 -89.7314 301° West  Level FlightAware Approximate
Fri 04:45:00 PM 14.1844 -89.8393 301° West  Level FlightAware Approximate
Fri 04:46:00 PM 14.2482 -89.9473 301° West  Level FlightAware Approximate
Fri 04:47:00 PM 14.3120 -90.0553 301° West  Level FlightAware Approximate
Fri 04:48:00 PM 14.3757 -90.1634 301° West  Level FlightAware Approximate
Fri 04:49:00 PM 14.4934 -90.1986 309° West  Level Estimated
Fri 04:50:00 PM 14.5584 -90.3060 302° West  Level FlightAware Approximate
Fri 04:51:00 PM 14.6234 -90.4134 302° West  Level FlightAware Approximate
Fri 04:52:00 PM 14.6883 -90.5209 302° West  Level FlightAware Approximate
Fri 04:53:00 PM 14.7532 -90.6284 302° West  Level FlightAware Approximate
Fri 04:54:00 PM 14.8180 -90.7360 302° West  Level FlightAware Approximate
Fri 04:55:00 PM 14.9365 -90.7685 309° West  Level Estimated
Fri 04:56:00 PM 15.0050 -90.8737 304° West  Level FlightAware Approximate
Fri 04:57:00 PM 15.0734 -90.9790 304° West  Level FlightAware Approximate
Fri 04:58:00 PM 15.1418 -91.0844 304° West  Level FlightAware Approximate
Fri 04:59:00 PM 15.2101 -91.1899 304° West  Level FlightAware Approximate
Fri 05:00:00 PM 15.2784 -91.2954 304° West  Level FlightAware Approximate
Fri 05:01:00 PM 15.3467 -91.4009 304° West  Level FlightAware Approximate
Fri 05:02:00 PM 15.4149 -91.5066 304° West  Level FlightAware Approximate
Fri 05:03:00 PM 15.4830 -91.6123 304° West  Level FlightAware Approximate
Fri 05:04:00 PM 15.6026 -91.6402 309° West  Level Estimated
Fri 05:05:00 PM 15.6739 -91.7438 306° West  Level FlightAware Approximate
Fri 05:06:00 PM 15.7451 -91.8474 306° West  Level FlightAware Approximate
Fri 05:07:00 PM 15.8163 -91.9511 306° West  Level FlightAware Approximate
Fri 05:08:00 PM 15.8874 -92.0549 305° West  Level FlightAware Approximate
Fri 05:09:00 PM 15.9585 -92.1587 305° West  Level FlightAware Approximate
Fri 05:10:00 PM 16.0295 -92.2626 305° West  Level FlightAware Approximate
Fri 05:11:00 PM 16.1005 -92.3667 305° West  Level FlightAware Approximate
Fri 05:12:00 PM 16.1714 -92.4707 305° West  Level FlightAware Approximate
Fri 05:13:00 PM 16.2426 -92.5753 305° West  Level FlightAware Approximate
Fri 05:14:00 PM 16.3137 -92.6799 305° West  Level FlightAware Approximate
Fri 05:15:00 PM 16.3848 -92.7846 305° West  Level FlightAware Approximate
Fri 05:16:00 PM 16.4558 -92.8894 305° West  Level FlightAware Approximate
Fri 05:17:00 PM 16.5267 -92.9942 305° West  Level FlightAware Approximate
Fri 05:18:00 PM 16.6484 -93.0136 318° Northwest  Level Estimated
Fri 05:19:00 PM 16.7331 -93.1068 314° West  Level FlightAware Approximate
Fri 05:20:00 PM 16.8178 -93.2001 313° West  Level FlightAware Approximate
Fri 05:21:00 PM 16.9024 -93.2934 313° West  Level FlightAware Approximate
Fri 05:22:00 PM 16.9869 -93.3869 313° West  Level FlightAware Approximate
Fri 05:23:00 PM 17.0715 -93.4804 313° West  Level FlightAware Approximate
Fri 05:24:00 PM 17.1560 -93.5740 313° West  Level FlightAware Approximate
Fri 05:25:00 PM 17.2404 -93.6677 313° West  Level FlightAware Approximate
Fri 05:26:00 PM 17.3248 -93.7615 313° West  Level FlightAware Approximate
Fri 05:27:00 PM 17.4092 -93.8554 313° West  Level FlightAware Approximate
Fri 05:28:00 PM 17.4935 -93.9493 313° West  Level FlightAware Approximate
Fri 05:29:00 PM 17.5778 -94.0434 313° West  Level FlightAware Approximate
Fri 05:30:00 PM 17.6620 -94.1375 313° West  Level FlightAware Approximate
Fri 05:31:00 PM 17.7846 -94.1485 308° West  Level Estimated
Fri 05:32:00 PM 17.8568 -94.2532 306° West  Level FlightAware Approximate
Fri 05:33:00 PM 17.9290 -94.3579 306° West  Level FlightAware Approximate
Fri 05:34:00 PM 18.0011 -94.4628 306° West  Level FlightAware Approximate
Fri 05:35:00 PM 18.0731 -94.5677 306° West  Level FlightAware Approximate
Fri 05:36:00 PM 18.1451 -94.6727 306° West  Level FlightAware Approximate
Fri 05:37:00 PM 18.2170 -94.7778 306° West  Level FlightAware Approximate
Fri 05:38:00 PM 18.3400 -94.7832 304° West  Level Estimated
Fri 05:39:00 PM 18.4035 -94.8943 301° West  Level FlightAware Approximate
Fri 05:40:00 PM 18.4670 -95.0054 301° West  Level FlightAware Approximate
Fri 05:41:00 PM 18.5305 -95.1166 301° West  Level FlightAware Approximate
Fri 05:42:00 PM 18.5938 -95.2278 301° West  Level FlightAware Approximate
Fri 05:43:00 PM 18.6572 -95.3392 301° West  Level FlightAware Approximate
Fri 05:44:00 PM 18.7204 -95.4506 301° West  Level FlightAware Approximate
Fri 05:45:00 PM 18.7836 -95.5622 301° West  Level FlightAware Approximate
Fri 05:47:43 PM 19.1152 -95.5561 333° Northwest  Level Estimated
Fri 05:49:00 PM 19.2236 -95.6760 314° West  Level FlightAware Approximate
Fri 05:50:00 PM 19.3080 -95.7694 314° West  Level FlightAware Approximate
Fri 05:51:00 PM 19.3924 -95.8630 314° West  Level FlightAware Approximate
Fri 05:52:00 PM 19.4767 -95.9567 314° West  Level FlightAware Approximate
Fri 05:53:00 PM 19.5609 -96.0504 314° West  Level FlightAware Approximate
Fri 05:54:00 PM 19.6451 -96.1443 314° West  Level FlightAware Approximate
Fri 05:55:00 PM 19.7293 -96.2383 314° West  Level FlightAware Approximate
Fri 05:56:00 PM 19.8134 -96.3323 314° West  Level FlightAware Approximate
Fri 05:57:00 PM 19.9351 -96.3213 338° Northwest  Level Estimated
Fri 05:58:00 PM 20.0567 -96.3103 334° Northwest  Level Estimated
Fri 05:59:00 PM 20.1597 -96.3803 327° Northwest  Level FlightAware Approximate
Fri 06:00:00 PM 20.2626 -96.4504 327° Northwest  Level FlightAware Approximate
Fri 06:01:00 PM 20.3654 -96.5205 327° Northwest  Level FlightAware Approximate
Fri 06:02:00 PM 20.4683 -96.5908 327° Northwest  Level FlightAware Approximate
Fri 06:03:00 PM 20.5711 -96.6611 327° Northwest  Level FlightAware Approximate
Fri 06:04:00 PM 20.6739 -96.7315 327° Northwest  Level FlightAware Approximate
Fri 06:05:00 PM 20.7766 -96.8021 327° Northwest  Level FlightAware Approximate
Fri 06:06:00 PM 20.8794 -96.8727 327° Northwest  Level FlightAware Approximate
Fri 06:07:00 PM 20.9820 -96.9434 327° Northwest  Level FlightAware Approximate
Fri 06:08:00 PM 21.0847 -97.0142 327° Northwest  Level FlightAware Approximate
Fri 06:09:00 PM 21.1874 -97.0852 327° Northwest  Level FlightAware Approximate
Fri 06:10:00 PM 21.2900 -97.1562 327° Northwest  Level FlightAware Approximate
Fri 06:11:00 PM 21.3925 -97.2273 327° Northwest  Level FlightAware Approximate
Fri 06:12:00 PM 21.4951 -97.2985 327° Northwest  Level FlightAware Approximate
Fri 06:13:00 PM 21.5976 -97.3698 327° Northwest  Level FlightAware Approximate
Fri 06:14:00 PM 21.7001 -97.4412 327° Northwest  Level FlightAware Approximate
Fri 06:15:00 PM 21.8026 -97.5127 327° Northwest  Level FlightAware Approximate
Fri 06:16:00 PM 21.9216 -97.4832 North  Level Estimated
Fri 06:17:00 PM 22.0411 -97.5102 348° North  Level FlightAware Approximate
Fri 06:18:00 PM 22.1606 -97.5372 348° North  Level FlightAware Approximate
Fri 06:19:00 PM 22.2801 -97.5643 348° North  Level FlightAware Approximate
Fri 06:20:00 PM 22.3996 -97.5914 348° North  Level FlightAware Approximate
Fri 06:21:00 PM 22.5191 -97.6186 348° North  Level FlightAware Approximate
Fri 06:22:00 PM 22.6386 -97.6458 348° North  Level FlightAware Approximate
Fri 06:23:00 PM 22.7564 -97.6111 North  Level Estimated
Fri 06:24:00 PM 22.8785 -97.6105 North  Level FlightAware Approximate
Fri 06:25:00 PM 23.0006 -97.6099 North  Level FlightAware Approximate
Fri 06:26:00 PM 23.1227 -97.6093 North  Level FlightAware Approximate
Fri 06:27:00 PM 23.2448 -97.6088 North  Level FlightAware Approximate
Fri 06:28:00 PM 23.3669 -97.6082 North  Level FlightAware Approximate
Fri 06:29:00 PM 23.4890 -97.6076 North  Level FlightAware Approximate
Fri 06:30:00 PM 23.6111 -97.6070 North  Level FlightAware Approximate
Fri 06:31:00 PM 23.7332 -97.6064 North  Level FlightAware Approximate
Fri 06:32:00 PM 23.8553 -97.6059 North  Level FlightAware Approximate
Fri 06:33:00 PM 23.9774 -97.6053 North  Level FlightAware Approximate
Fri 06:33:55 PM 25.0392 -97.4797 North 474 545 37,000  Level Houston Center
Fri 06:34:00 PM 24.0995 -97.6047 North  Level FlightAware Approximate
Fri 06:34:57 PM 25.1703 -97.4622 North 473 544 37,000  Level Houston Center
Fri 06:35:00 PM 24.2216 -97.6041 North  Level FlightAware Approximate
Fri 06:36:00 PM 24.3437 -97.6035 North  Level FlightAware Approximate
Fri 06:36:00 PM 25.3256 -97.4447 North 469 540 37,000  Level Houston Center
Fri 06:37:00 PM 24.4658 -97.6029 North  Level FlightAware Approximate
Fri 06:37:02 PM 25.4564 -97.4297 North 472 543 36,900  Level Houston Center
Fri 06:38:00 PM 24.5809 -97.5581 North  Level Estimated
Fri 06:38:04 PM 25.5961 -97.3936 13° North 480 552 37,000  Level Houston Center
Fri 06:39:00 PM 24.7029 -97.5538 North  Level FlightAware Approximate
Fri 06:39:06 PM 25.7364 -97.3514 15° North 485 558 37,000  Level Houston Center
Fri 06:40:08 PM 25.8658 -97.3119 15° North 484 557 37,000  Level Houston Center
Fri 06:41:10 PM 26.0072 -97.2697 15° North 488 562 37,000  Level Houston Center
Fri 06:42:12 PM 26.1403 -97.2289 15° North 497 572 37,000  Level Houston Center
Fri 06:43:15 PM 26.2844 -97.1858 15° North 500 575 37,000  Level Houston Center
Fri 06:44:17 PM 26.4186 -97.1453 15° North 502 578 37,000  Level Houston Center
Fri 06:45:19 PM 26.5636 -97.1011 15° North 503 579 37,000  Level Houston Center
Fri 06:46:21 PM 26.6978 -97.0611 15° North 496 571 37,000  Level Houston Center
Fri 06:47:23 PM 26.8344 -97.0192 15° North 500 575 37,000  Level Houston Center
Fri 06:48:25 PM 26.9708 -96.9772 15° North 499 574 37,000  Level Houston Center
Fri 06:49:27 PM 27.1183 -96.9317 15° North 499 574 37,000  Level Houston Center
Fri 06:50:30 PM 27.2542 -96.8894 15° North 496 571 37,000  Level Houston Center
Fri 06:51:32 PM 27.3906 -96.8481 15° North 498 573 37,000  Level Houston Center
Fri 06:52:34 PM 27.5256 -96.8053 16° North 495 570 37,000  Level Houston Center
Fri 06:53:36 PM 27.6600 -96.7642 15° North 491 565 37,000  Level Houston Center
Fri 06:54:38 PM 27.8050 -96.7197 15° North 489 563 37,000 -435 Level Houston Center
Fri 06:55:40 PM 27.9375 -96.6772 16° North 487 560 36,100 -919 Descending Houston Center
Fri 06:56:42 PM 28.0703 -96.6364 15° North 485 558 35,100 -968 Descending Houston Center
Fri 06:57:44 PM 28.2028 -96.5956 15° North 485 558 34,100 -1,008 Descending Houston Center
Fri 06:58:47 PM 28.3353 -96.5506 17° North 489 563 33,000 -1,632 Descending Houston Center
Fri 06:59:49 PM 28.4589 -96.5128 15° North 465 535 30,700 -2,226 Descending Houston Center
Fri 07:00:51 PM 28.5825 -96.4747 15° North 461 531 28,400 -2,226 Descending Houston Center
Fri 07:01:53 PM 28.7028 -96.4369 15° North 452 520 26,100 -2,371 Descending Houston Center
Fri 07:02:55 PM 28.8431 -96.3922 16° North 439 505 23,500 -2,226 Descending Houston Center
Fri 07:03:57 PM 28.9550 -96.3575 15° North 424 488 21,500 -1,984 Descending Houston Center
Fri 07:04:59 PM 29.0631 -96.3225 16° North 409 471 19,400 -2,113 Descending Houston Center
Fri 07:05:08 PM 29.0819 -96.3139 22° Northeast 400 460 19,000 -1,966 Descending Houston Center
Fri 07:05:57 PM 29.1697 -96.2875 15° North 390 449 17,500 -1,698 Descending Houston Center
Fri 07:06:01 PM 29.1669 -96.2886 199° South 396 456 17,500 -2,036 Level Houston Center
Fri 07:06:53 PM 29.2658 -96.2578 15° North 380 437 15,600 -1,935 Descending Houston Center
Fri 07:07:03 PM 29.2678 -96.2581 353° North 380 437 15,500 -2,066 Descending Houston Center
Fri 07:07:54 PM 29.3658 -96.2250 16° North 370 426 13,500 -2,381 Descending Houston Center
Fri 07:08:06 PM 29.3861 -96.2197 13° North 370 426 13,000 -2,032 Descending Houston Center
Fri 07:08:56 PM 29.4700 -96.1919 16° North 365 420 11,400 -1,839 Descending Houston Center
Fri 07:09:08 PM 29.4831 -96.1875 17° North 365 420 11,100 -1,377 Descending Houston Center
Fri 07:09:57 PM 29.5561 -96.1439 27° Northeast 351 404 10,000 -1,161 Descending Houston Center
Fri 07:10:10 PM 29.5628 -96.1322 57° Northeast 351 404 9,900  Descending Houston Center
Fri 07:10:58 PM 29.6028 -96.0522 60° Northeast 346 398 10,000 97 Climbing Houston Center
Fri 07:11:12 PM 29.6117 -96.0386 53° Northeast 342 394 10,000 -492 Level Houston Center
Fri 07:11:59 PM 29.6575 -95.9569 57° Northeast 314 361 9,500 -581 Descending Houston Center
Fri 07:12:14 PM 29.6625 -95.9533 32° Northeast 333 383 9,400 -1,179 Descending Houston Center
Fri 07:12:55 PM 29.7211 -95.9161 29° Northeast 299 344 8,400 -1,548 Descending Houston Center
Fri 07:13:16 PM 29.7489 -95.8939 35° Northeast 304 350 7,800 -1,273 Descending Houston Center
Fri 07:14:01 PM 29.7972 -95.8497 38° Northeast 292 336 7,000 -774 Descending Houston Center
Fri 07:14:18 PM 29.8131 -95.8369 35° Northeast 293 337 7,000  Level Houston Center
Fri 07:15:03 PM 29.8578 -95.7992 36° Northeast 269 310 7,000 -387 Level Houston Center
Fri 07:15:20 PM 29.8733 -95.7858 37° Northeast 278 320 6,600 -1,215 Descending Houston Center
Fri 07:16:22 PM 29.9125 -95.7128 58° Northeast 275 316 5,400 -1,314 Descending Houston Center
Fri 07:17:05 PM 29.9392 -95.6525 63° Northeast 259 298 4,300 -1,238 Descending Houston Center
Fri 07:17:25 PM 29.9456 -95.6392 61° Northeast 263 303 4,100 -885 Descending Houston Center
Fri 07:18:06 PM 29.9728 -95.5811 62° Northeast 254 292 3,400 -774 Descending Houston Center
Fri 07:18:27 PM 29.9786 -95.5683 62° Northeast 254 292 3,300 -689 Descending Houston Center
Fri 07:19:07 PM 29.9919 -95.5136 74° East 213 245 2,700 -774 Descending Houston Center
Fri 07:19:29 PM 29.9931 -95.5006 84° East 232 267 2,500 -984 Descending Houston Center
Fri 07:20:08 PM 29.9922 -95.4483 91° East 186 214 1,700 -1,065 Descending Houston Center
Fri 07:20:31 PM 29.9933 -95.4275 86° East 204 235 1,400 -871 Descending Houston Center
Fri 07:21:10 PM 29.9939 -95.3975 89° East 146 168 800 -774 Descending Houston Center
Fri 07:21:33 PM 29.9933 -95.3819 92° East 170 196 600 -282 Descending Houston Center
Fri 07:22:35 PM 29.9919 -95.3358 92° East 165 190 400 -194 Descending Houston Center

Login

Don't have an account? Register now (free) for customized features, flight alerts, and more!